Time;durP1;ratioP1;P1;durP2;ratioP2;P2;SDS_P1;SDS_P2;PMS_P1;PMS_P2;Temp;Humidity;BMP_temperature;BMP_pressure;BME280_temperature;BME280_humidity;BME280_pressure;Samples;Min_cycle;Max_cycle;Signal;HPM_P1;HPM_P2
2022/04/05 00:01:43;;;;;;;7.00;6.40;;;6.30;99.90;;;;;;5032768;28;20052;-74
2022/04/05 00:04:10;;;;;;;11.35;7.43;;;6.40;99.90;;;;;;5002079;28;20021;-78
2022/04/05 00:06:36;;;;;;;7.00;6.30;;;6.50;99.90;;;;;;5029749;28;20018;-77
2022/04/05 00:09:02;;;;;;;7.03;5.88;;;6.40;99.90;;;;;;5006451;28;20040;-78
2022/04/05 00:11:27;;;;;;;7.90;6.65;;;6.40;99.90;;;;;;5014008;28;20483;-77
2022/04/05 00:13:53;;;;;;;8.88;6.82;;;6.50;99.90;;;;;;5027911;28;20543;-76
2022/04/05 00:16:19;;;;;;;8.15;6.80;;;6.50;99.90;;;;;;5028226;28;20160;-75
2022/04/05 00:18:45;;;;;;;7.47;6.32;;;6.50;99.90;;;;;;5011234;28;20058;-75
2022/04/05 00:21:10;;;;;;;7.40;6.60;;;6.50;99.90;;;;;;5010544;28;20108;-75
2022/04/05 00:23:36;;;;;;;8.40;6.82;;;6.50;99.90;;;;;;5014020;28;20021;-76
2022/04/05 00:26:02;;;;;;;7.28;6.57;;;6.40;99.90;;;;;;5028962;28;20037;-77
2022/04/05 00:28:27;;;;;;;7.20;6.50;;;6.40;99.90;;;;;;5025942;28;20072;-77
2022/04/05 00:30:54;;;;;;;8.68;6.10;;;6.40;99.90;;;;;;5030048;28;20029;-76
2022/04/05 00:33:20;;;;;;;11.02;6.97;;;6.40;99.90;;;;;;5016316;28;20060;-77
2022/04/05 00:35:46;;;;;;;7.60;6.85;;;6.40;99.90;;;;;;5029309;28;20517;-79
2022/04/05 00:38:11;;;;;;;6.78;6.15;;;6.50;99.90;;;;;;5010493;28;20037;-80
2022/04/05 00:40:37;;;;;;;7.78;6.60;;;6.40;99.90;;;;;;5014500;28;20056;-79
2022/04/05 00:43:06;;;;;;;7.63;6.72;;;6.40;99.90;;;;;;5036624;28;20025;-79
2022/04/05 00:45:33;;;;;;;6.75;6.07;;;6.40;99.90;;;;;;5016710;28;20036;-80
2022/04/05 00:48:04;;;;;;;8.43;6.78;;;6.40;99.90;;;;;;5013188;28;20117;-79
2022/04/05 00:50:34;;;;;;;9.45;8.00;;;6.40;99.90;;;;;;5018499;28;20080;-80
2022/04/05 00:53:02;;;;;;;7.43;6.15;;;6.40;99.90;;;;;;5039995;28;20048;-78
2022/04/05 00:55:28;;;;;;;6.95;6.25;;;6.40;99.90;;;;;;5013955;28;20475;-79
2022/04/05 00:57:57;;;;;;;6.40;5.53;;;6.50;99.90;;;;;;5019396;28;20084;-79
2022/04/05 01:00:23;;;;;;;8.55;6.57;;;6.50;99.90;;;;;;5031772;28;20018;-79
2022/04/05 01:02:52;;;;;;;7.00;6.25;;;6.50;99.90;;;;;;5016712;28;20029;-79
2022/04/05 01:05:18;;;;;;;6.70;6.10;;;6.50;99.90;;;;;;5030865;28;20075;-79
2022/04/05 01:07:46;;;;;;;8.60;7.07;;;6.50;99.90;;;;;;5035614;28;20022;-80
2022/04/05 01:10:12;;;;;;;7.25;6.32;;;6.50;99.90;;;;;;5010569;28;20018;-78
2022/04/05 01:12:38;;;;;;;6.70;6.05;;;6.50;99.90;;;;;;5014917;28;20108;-79
2022/04/05 01:15:04;;;;;;;13.82;7.15;;;6.60;99.90;;;;;;5011710;28;20036;-80
2022/04/05 01:17:31;;;;;;;6.93;5.50;;;6.50;99.90;;;;;;5027713;28;20025;-80
2022/04/05 01:19:57;;;;;;;6.03;5.22;;;6.60;99.90;;;;;;5029493;28;20026;-80
2022/04/05 01:22:22;;;;;;;8.23;5.63;;;6.50;99.90;;;;;;5022052;28;20025;-80
2022/04/05 01:24:48;;;;;;;7.43;6.70;;;6.60;99.90;;;;;;5029111;28;20029;-79
2022/04/05 01:27:18;;;;;;;6.90;6.20;;;6.70;99.90;;;;;;5033384;28;20029;-79
2022/04/05 01:29:45;;;;;;;6.72;5.95;;;6.60;99.90;;;;;;5032101;28;20021;-79
2022/04/05 01:32:11;;;;;;;6.82;6.18;;;6.70;99.90;;;;;;5017639;28;20041;-80
2022/04/05 01:34:38;;;;;;;6.63;5.90;;;6.60;99.90;;;;;;5032057;28;20106;-78
2022/04/05 01:37:06;;;;;;;6.35;5.72;;;6.60;99.90;;;;;;5014981;28;20029;-80
2022/04/05 01:39:33;;;;;;;8.02;5.88;;;6.60;99.90;;;;;;5019021;28;20020;-78
2022/04/05 01:42:01;;;;;;;6.25;5.63;;;6.60;99.90;;;;;;5032603;28;20053;-78
2022/04/05 01:44:29;;;;;;;7.25;6.55;;;6.50;99.90;;;;;;5034441;28;20049;-79
2022/04/05 01:46:55;;;;;;;5.65;5.15;;;6.50;99.90;;;;;;5035207;28;20274;-79
2022/04/05 01:49:21;;;;;;;7.20;5.78;;;6.60;99.90;;;;;;5024639;28;20030;-79
2022/04/05 01:51:46;;;;;;;7.03;6.32;;;6.50;99.90;;;;;;5008594;28;20028;-79
2022/04/05 01:54:15;;;;;;;7.40;5.60;;;6.50;99.90;;;;;;5026290;28;20033;-79
2022/04/05 01:56:46;;;;;;;6.57;5.88;;;6.50;99.90;;;;;;5037476;28;20049;-80
2022/04/05 01:59:15;;;;;;;6.47;5.88;;;6.40;99.90;;;;;;5036702;28;20061;-79
2022/04/05 02:01:41;;;;;;;8.68;6.32;;;6.50;99.90;;;;;;5017215;28;20021;-80
2022/04/05 02:04:08;;;;;;;7.53;5.55;;;6.50;99.90;;;;;;5030787;28;20033;-79
2022/04/05 02:06:34;;;;;;;8.23;6.20;;;6.40;99.90;;;;;;5018976;28;20029;-79
2022/04/05 02:08:59;;;;;;;6.88;6.25;;;6.40;99.90;;;;;;5012230;28;20070;-80
2022/04/05 02:11:25;;;;;;;8.07;6.35;;;6.30;99.90;;;;;;5026772;28;20033;-80
2022/04/05 02:13:50;;;;;;;6.78;6.07;;;6.30;99.90;;;;;;5017376;28;20155;-80
2022/04/05 02:16:16;;;;;;;9.07;6.88;;;6.30;99.90;;;;;;5023072;28;20030;-79
2022/04/05 02:18:41;;;;;;;8.40;6.20;;;6.30;99.90;;;;;;5032496;28;20037;-80
2022/04/05 02:21:07;;;;;;;7.22;6.32;;;6.30;99.90;;;;;;5022853;28;20025;-80
2022/04/05 02:23:33;;;;;;;8.50;6.53;;;6.30;99.90;;;;;;5033930;28;20078;-80
2022/04/05 02:25:59;;;;;;;6.30;5.70;;;6.20;99.90;;;;;;5055790;28;20032;-79
2022/04/05 02:28:25;;;;;;;6.53;5.93;;;6.20;99.90;;;;;;5038548;28;20013;-79
2022/04/05 02:30:51;;;;;;;7.50;5.35;;;6.30;99.90;;;;;;5048020;28;20016;-80
2022/04/05 02:33:17;;;;;;;8.90;6.70;;;6.20;99.90;;;;;;5040554;28;20017;-78
2022/04/05 02:35:43;;;;;;;7.63;6.15;;;6.20;99.90;;;;;;5044876;28;20083;-79
2022/04/05 02:38:09;;;;;;;8.00;7.18;;;6.30;99.90;;;;;;5009591;28;20051;-79
2022/04/05 02:40:35;;;;;;;9.02;6.68;;;6.30;99.90;;;;;;5034429;28;20026;-78
2022/04/05 02:43:00;;;;;;;7.75;6.82;;;6.30;99.90;;;;;;5026834;28;20048;-78
2022/04/05 02:45:26;;;;;;;6.15;5.55;;;6.20;99.90;;;;;;5015776;28;20103;-80
2022/04/05 02:47:52;;;;;;;7.10;5.95;;;6.20;99.90;;;;;;5026491;28;20053;-80
2022/04/05 02:50:18;;;;;;;7.65;6.72;;;6.30;99.90;;;;;;5015067;28;20034;-79
2022/04/05 02:52:47;;;;;;;8.38;7.60;;;6.20;99.90;;;;;;5003708;28;20017;-80
2022/04/05 02:55:13;;;;;;;6.82;6.22;;;6.20;99.90;;;;;;5007654;28;20026;-79
2022/04/05 02:57:40;;;;;;;6.15;5.50;;;6.20;99.90;;;;;;5019294;28;20026;-80
2022/04/05 03:00:08;;;;;;;7.72;6.57;;;6.20;99.90;;;;;;5009364;28;20111;-80
2022/04/05 03:02:37;;;;;;;7.88;6.15;;;6.20;99.90;;;;;;5001546;28;20034;-79
2022/04/05 03:05:05;;;;;;;7.95;6.32;;;6.20;99.90;;;;;;5021806;28;20036;-80
2022/04/05 03:07:30;;;;;;;7.00;6.30;;;6.20;99.90;;;;;;5035923;28;20028;-80
2022/04/05 03:09:56;;;;;;;6.75;5.90;;;6.20;99.90;;;;;;5016000;28;20057;-79
2022/04/05 03:12:22;;;;;;;6.70;6.05;;;6.20;99.90;;;;;;5006028;28;20030;-80
2022/04/05 03:14:47;;;;;;;10.07;6.38;;;6.10;99.90;;;;;;5013907;28;20042;-79
2022/04/05 03:17:13;;;;;;;7.28;6.57;;;6.10;99.90;;;;;;5021830;28;20030;-78
2022/04/05 03:19:39;;;;;;;7.75;7.03;;;6.10;99.90;;;;;;5021347;28;20036;-79
2022/04/05 03:22:05;;;;;;;7.82;6.20;;;6.00;99.90;;;;;;5020866;28;20030;-79
2022/04/05 03:24:48;;;;;;;6.30;5.65;;;6.00;99.90;;;;;;5032411;28;20032;-80
2022/04/05 03:27:14;;;;;;;9.70;7.35;;;6.00;99.90;;;;;;5031617;28;20029;-80
2022/04/05 03:29:40;;;;;;;10.25;6.63;;;6.00;99.90;;;;;;5031833;28;20094;-79
2022/04/05 03:32:06;;;;;;;7.55;6.72;;;6.00;99.90;;;;;;5023415;28;20029;-79
2022/04/05 03:34:31;;;;;;;8.30;6.93;;;6.00;99.90;;;;;;5031505;28;20526;-81
2022/04/05 03:36:57;;;;;;;8.75;6.43;;;6.00;99.90;;;;;;5032349;28;20069;-80
2022/04/05 03:39:22;;;;;;;8.30;7.40;;;6.10;99.90;;;;;;5008722;28;20056;-80
2022/04/05 03:41:49;;;;;;;7.43;6.55;;;6.00;99.90;;;;;;5015819;28;20037;-79
2022/04/05 03:44:15;;;;;;;8.45;7.60;;;6.00;99.90;;;;;;5015232;28;20030;-79
2022/04/05 03:46:41;;;;;;;7.22;6.53;;;6.00;99.90;;;;;;5027485;28;20360;-79
2022/04/05 03:49:06;;;;;;;7.00;6.30;;;6.00;99.90;;;;;;5032879;28;20103;-78
2022/04/05 03:51:32;;;;;;;7.63;6.30;;;6.00;99.90;;;;;;5027045;28;20118;-79
2022/04/05 03:53:58;;;;;;;7.93;7.15;;;6.00;99.90;;;;;;5029688;28;20029;-77
2022/04/05 03:56:24;;;;;;;8.00;6.63;;;6.00;99.90;;;;;;5013702;28;20457;-78
2022/04/05 03:58:50;;;;;;;6.25;5.57;;;6.00;99.90;;;;;;5030984;28;20109;-78
2022/04/05 04:01:16;;;;;;;6.72;6.03;;;6.10;99.90;;;;;;5016399;28;20021;-79
2022/04/05 04:03:42;;;;;;;10.63;6.85;;;6.10;99.90;;;;;;5008960;28;20104;-78
2022/04/05 04:06:07;;;;;;;7.38;5.57;;;6.20;99.90;;;;;;5033608;28;20117;-79
2022/04/05 04:08:33;;;;;;;7.93;7.15;;;6.10;99.90;;;;;;5019913;28;20065;-79
2022/04/05 04:10:59;;;;;;;6.90;6.00;;;6.10;99.90;;;;;;5019239;28;20030;-80
2022/04/05 04:13:25;;;;;;;8.80;6.68;;;6.10;99.90;;;;;;5014495;28;20064;-78
2022/04/05 04:15:50;;;;;;;10.57;5.93;;;6.10;99.90;;;;;;5030642;28;20090;-79
2022/04/05 04:18:16;;;;;;;10.40;6.30;;;6.10;99.90;;;;;;5012167;28;20041;-81
2022/04/05 04:20:44;;;;;;;8.68;6.35;;;6.00;99.90;;;;;;5015587;28;20026;-79
2022/04/05 04:23:10;;;;;;;6.72;6.07;;;6.10;99.90;;;;;;5035442;28;20038;-79
2022/04/05 04:25:39;;;;;;;7.57;6.75;;;6.10;99.90;;;;;;5016745;28;20037;-80
2022/04/05 04:28:09;;;;;;;7.47;6.72;;;6.10;99.90;;;;;;5023358;28;20117;-79
2022/04/05 04:30:37;;;;;;;8.50;6.77;;;6.10;99.90;;;;;;5012048;28;22004;-80
2022/04/05 04:33:03;;;;;;;9.00;6.68;;;6.10;99.90;;;;;;5028945;28;20307;-80
2022/04/05 04:35:30;;;;;;;10.73;8.68;;;6.00;99.90;;;;;;5035301;28;20131;-78
2022/04/05 04:37:57;;;;;;;7.68;6.72;;;6.00;99.90;;;;;;5028904;28;20029;-78
2022/04/05 04:40:23;;;;;;;6.80;6.13;;;6.00;99.90;;;;;;5032661;28;20013;-79
2022/04/05 04:42:49;;;;;;;7.28;6.57;;;6.00;99.90;;;;;;5032187;28;20036;-79
2022/04/05 04:45:14;;;;;;;6.75;6.15;;;6.00;99.90;;;;;;5038878;28;20021;-79
2022/04/05 04:47:41;;;;;;;8.10;6.25;;;6.00;99.90;;;;;;5011391;28;20026;-79
2022/04/05 04:50:08;;;;;;;7.68;6.60;;;6.00;99.90;;;;;;5044730;28;20032;-80
2022/04/05 04:52:34;;;;;;;8.10;6.90;;;6.00;99.90;;;;;;5038024;28;20021;-80
2022/04/05 04:54:59;;;;;;;9.20;6.90;;;6.00;99.90;;;;;;5022772;28;20022;-80
2022/04/05 04:57:25;;;;;;;9.00;6.88;;;6.00;99.90;;;;;;5018818;28;20104;-80
2022/04/05 04:59:52;;;;;;;7.07;6.38;;;5.90;99.90;;;;;;5036046;28;20041;-80
2022/04/05 05:02:18;;;;;;;8.57;7.03;;;5.90;99.90;;;;;;5022866;28;20029;-78
2022/04/05 05:04:43;;;;;;;7.75;6.30;;;5.90;99.90;;;;;;5019786;28;20056;-80
2022/04/05 05:07:09;;;;;;;8.32;6.57;;;5.90;99.90;;;;;;5022941;28;20064;-80
2022/04/05 05:09:35;;;;;;;9.65;6.63;;;5.90;99.90;;;;;;5036740;28;20087;-79
2022/04/05 05:12:01;;;;;;;10.32;6.97;;;5.90;99.90;;;;;;5024230;28;20090;-79
2022/04/05 05:14:27;;;;;;;8.40;6.93;;;5.90;99.90;;;;;;5019463;28;20030;-79
2022/04/05 05:16:53;;;;;;;9.10;8.07;;;5.90;99.90;;;;;;5031038;28;20136;-80
2022/04/05 05:19:20;;;;;;;8.55;7.10;;;5.80;99.90;;;;;;5031842;28;20026;-79
2022/04/05 05:21:46;;;;;;;7.88;7.07;;;5.80;99.90;;;;;;5025301;28;20021;-79
2022/04/05 05:24:11;;;;;;;15.40;11.00;;;5.90;99.90;;;;;;5016168;28;20113;-79
2022/04/05 05:26:37;;;;;;;9.18;8.18;;;5.90;99.90;;;;;;5037736;28;20033;-80
2022/04/05 05:29:03;;;;;;;8.48;7.68;;;5.90;99.90;;;;;;5012559;28;20049;-78
2022/04/05 05:31:28;;;;;;;9.63;8.35;;;5.90;99.90;;;;;;5033562;28;20033;-79
2022/04/05 05:33:54;;;;;;;12.02;7.90;;;5.90;99.90;;;;;;5038388;28;20047;-78
2022/04/05 05:36:19;;;;;;;9.85;8.85;;;5.90;99.90;;;;;;5036811;28;20022;-78
2022/04/05 05:38:45;;;;;;;7.65;6.95;;;5.90;99.90;;;;;;5031583;28;20064;-78
2022/04/05 05:41:10;;;;;;;10.52;7.70;;;5.90;99.90;;;;;;5037946;28;20034;-79
2022/04/05 05:43:37;;;;;;;8.32;7.53;;;6.00;99.90;;;;;;5033260;28;20025;-81
2022/04/05 05:46:03;;;;;;;10.23;8.35;;;5.90;99.90;;;;;;5034013;28;20041;-79
2022/04/05 05:48:30;;;;;;;8.45;7.53;;;6.00;99.90;;;;;;5038351;28;20022;-80
2022/04/05 05:50:56;;;;;;;9.70;7.72;;;6.00;99.90;;;;;;5019102;28;20040;-78
2022/04/05 05:53:21;;;;;;;8.63;7.05;;;5.90;99.90;;;;;;5029744;28;20042;-80
2022/04/05 05:55:48;;;;;;;9.13;7.50;;;6.00;99.90;;;;;;5026865;28;20083;-79
2022/04/05 05:58:14;;;;;;;8.73;7.82;;;5.90;99.90;;;;;;5022749;28;20029;-80
2022/04/05 06:00:40;;;;;;;8.52;7.72;;;5.90;99.90;;;;;;5018240;28;20399;-79
2022/04/05 06:03:09;;;;;;;10.68;7.93;;;6.10;99.90;;;;;;5020752;28;20116;-79
2022/04/05 06:05:34;;;;;;;8.77;7.68;;;6.00;99.90;;;;;;5015580;28;20032;-79
2022/04/05 06:08:00;;;;;;;7.22;6.55;;;6.00;99.90;;;;;;5022981;28;20026;-79
2022/04/05 06:10:26;;;;;;;12.15;8.73;;;6.00;99.90;;;;;;5012813;28;20048;-79
2022/04/05 06:12:52;;;;;;;13.65;8.60;;;5.90;99.90;;;;;;5039506;28;20025;-79
2022/04/05 06:15:19;;;;;;;9.25;8.00;;;5.90;99.90;;;;;;5010077;28;20448;-78
2022/04/05 06:17:46;;;;;;;9.18;7.22;;;6.00;99.90;;;;;;5039939;28;20059;-79
2022/04/05 06:20:14;;;;;;;7.25;6.47;;;6.00;99.90;;;;;;5042005;28;20487;-78
2022/04/05 06:22:42;;;;;;;7.70;6.82;;;6.00;99.90;;;;;;5038018;28;20052;-80
2022/04/05 06:25:08;;;;;;;6.68;6.07;;;6.00;99.90;;;;;;5023320;28;20162;-78
2022/04/05 06:27:36;;;;;;;7.25;6.45;;;6.00;99.90;;;;;;5027974;28;20026;-79
2022/04/05 06:30:03;;;;;;;8.13;6.68;;;6.20;99.90;;;;;;5029793;28;20033;-79
2022/04/05 06:32:28;;;;;;;7.07;6.38;;;6.10;99.90;;;;;;5015763;28;20028;-79
2022/04/05 06:34:54;;;;;;;6.97;6.22;;;6.10;99.90;;;;;;5024984;28;20030;-79
2022/04/05 06:37:19;;;;;;;7.90;6.90;;;6.10;99.90;;;;;;5027715;28;20052;-79
2022/04/05 06:39:45;;;;;;;8.20;6.43;;;6.10;99.90;;;;;;5033872;28;20503;-79
2022/04/05 06:42:11;;;;;;;9.25;5.95;;;6.20;99.90;;;;;;5020960;28;20140;-79
2022/04/05 06:44:37;;;;;;;8.48;7.60;;;6.30;99.90;;;;;;5036631;28;20017;-79
2022/04/05 06:47:02;;;;;;;8.02;6.38;;;6.20;99.90;;;;;;5020681;28;20060;-78
2022/04/05 06:49:29;;;;;;;7.20;6.43;;;6.20;99.90;;;;;;5020034;28;20030;-78
2022/04/05 06:51:54;;;;;;;8.30;7.50;;;6.30;99.90;;;;;;5035104;28;20030;-79
2022/04/05 06:54:20;;;;;;;8.05;6.13;;;6.30;99.90;;;;;;5026292;28;20037;-78
2022/04/05 06:56:45;;;;;;;7.40;6.43;;;6.30;99.90;;;;;;5030737;28;20040;-78
2022/04/05 06:59:11;;;;;;;10.27;6.57;;;6.20;99.90;;;;;;5012808;28;20033;-79
2022/04/05 07:01:38;;;;;;;7.15;6.45;;;6.40;99.90;;;;;;5036212;28;20105;-77
2022/04/05 07:04:04;;;;;;;8.75;6.72;;;6.50;99.90;;;;;;5021066;28;20181;-79
2022/04/05 07:06:30;;;;;;;8.27;7.10;;;6.60;99.90;;;;;;5019418;28;20072;-78
2022/04/05 07:08:55;;;;;;;8.02;6.13;;;6.40;99.90;;;;;;5017232;28;20515;-80
2022/04/05 07:11:21;;;;;;;11.80;6.88;;;6.30;99.90;;;;;;5007859;28;20108;-79
2022/04/05 07:13:46;;;;;;;7.25;6.35;;;6.30;99.90;;;;;;5032320;28;20037;-78
2022/04/05 07:16:12;;;;;;;7.63;6.25;;;6.30;99.90;;;;;;5033230;28;20009;-79
2022/04/05 07:18:37;;;;;;;7.68;5.65;;;6.30;99.90;;;;;;5023661;28;20052;-79
2022/04/05 07:21:03;;;;;;;9.38;6.25;;;6.30;99.90;;;;;;5021869;28;20526;-81
2022/04/05 07:23:29;;;;;;;7.53;6.30;;;6.40;99.90;;;;;;5022599;28;20029;-80
2022/04/05 07:25:54;;;;;;;7.20;5.65;;;6.40;99.90;;;;;;5034635;28;20037;-79
2022/04/05 07:28:20;;;;;;;6.93;5.63;;;6.60;99.90;;;;;;5028812;28;20029;-81
2022/04/05 07:30:45;;;;;;;8.98;6.72;;;6.50;99.90;;;;;;5032096;28;20043;-81
2022/04/05 07:33:11;;;;;;;6.45;5.63;;;6.60;99.90;;;;;;5021543;28;20034;-81
2022/04/05 07:35:36;;;;;;;7.32;6.07;;;6.70;99.90;;;;;;5016075;28;20022;-81
2022/04/05 07:38:02;;;;;;;8.00;6.05;;;6.70;99.90;;;;;;5012737;28;20049;-80
2022/04/05 07:40:47;;;;;;;7.95;6.35;;;6.70;99.90;;;;;;5032889;28;20030;-80
2022/04/05 07:43:18;;;;;;;6.85;5.68;;;6.70;99.90;;;;;;5018857;28;20051;-81
2022/04/05 07:45:49;;;;;;;7.90;6.30;;;6.80;99.90;;;;;;5029780;28;20052;-80
2022/04/05 07:48:17;;;;;;;7.10;5.50;;;6.70;99.90;;;;;;5005342;28;20124;-80
2022/04/05 07:50:43;;;;;;;9.10;6.60;;;6.80;99.90;;;;;;5031083;28;20022;-81
2022/04/05 07:53:09;;;;;;;6.47;5.88;;;6.80;99.90;;;;;;5015945;28;20037;-80
2022/04/05 07:55:34;;;;;;;9.20;5.93;;;6.80;99.90;;;;;;5033969;28;20033;-81
2022/04/05 07:58:00;;;;;;;8.10;5.30;;;6.90;99.90;;;;;;5031913;28;20026;-81
2022/04/05 08:00:27;;;;;;;6.25;5.65;;;7.00;99.90;;;;;;5033872;28;20034;-81
2022/04/05 08:02:52;;;;;;;6.10;5.50;;;7.00;99.90;;;;;;5023859;28;20029;-81
2022/04/05 08:05:18;;;;;;;6.95;5.47;;;7.00;99.90;;;;;;5040603;28;20083;-81
2022/04/05 08:07:46;;;;;;;7.05;5.50;;;7.10;99.90;;;;;;5050617;28;20049;-81
2022/04/05 08:10:13;;;;;;;8.68;5.78;;;7.10;99.90;;;;;;5039844;28;20010;-81
2022/04/05 08:12:47;;;;;;;6.90;5.63;;;7.20;99.90;;;;;;5062351;28;20025;-81
2022/04/05 08:15:15;;;;;;;10.50;5.95;;;7.20;99.90;;;;;;5055672;28;20014;-80
2022/04/05 08:17:41;;;;;;;6.78;5.50;;;7.40;99.90;;;;;;5046865;28;20018;-79
2022/04/05 08:20:08;;;;;;;8.90;6.47;;;7.40;99.90;;;;;;5045535;28;20029;-80
2022/04/05 08:22:34;;;;;;;6.55;5.38;;;7.40;99.90;;;;;;5042842;28;20044;-81
2022/04/05 08:24:59;;;;;;;6.68;5.65;;;7.40;99.90;;;;;;5035904;28;20414;-81
2022/04/05 08:27:25;;;;;;;6.55;5.20;;;7.50;99.90;;;;;;5024129;28;20093;-79
2022/04/05 08:29:51;;;;;;;9.55;6.03;;;7.40;99.90;;;;;;5036935;28;20064;-81
2022/04/05 08:32:16;;;;;;;7.38;6.13;;;7.50;99.90;;;;;;5031883;28;20479;-81
2022/04/05 08:34:42;;;;;;;7.10;5.78;;;7.60;99.90;;;;;;5028392;28;20018;-76
2022/04/05 08:37:08;;;;;;;6.30;5.40;;;7.60;99.90;;;;;;5030719;28;20105;-76
2022/04/05 08:39:35;;;;;;;7.32;6.00;;;7.60;99.90;;;;;;5031247;28;20037;-77
2022/04/05 08:42:03;;;;;;;7.45;6.60;;;7.70;99.90;;;;;;5024028;28;20021;-78
2022/04/05 08:44:29;;;;;;;7.22;5.63;;;7.80;99.90;;;;;;5030721;28;20033;-77
2022/04/05 08:46:55;;;;;;;7.57;5.57;;;7.70;99.90;;;;;;5030495;28;20030;-75
2022/04/05 08:49:22;;;;;;;5.65;5.07;;;7.90;99.90;;;;;;5022735;28;20386;-76
2022/04/05 08:51:49;;;;;;;6.00;5.32;;;8.00;99.90;;;;;;5034478;28;20042;-77
2022/04/05 08:54:15;;;;;;;6.05;4.75;;;8.00;99.90;;;;;;5013824;28;20033;-75
2022/04/05 08:56:41;;;;;;;5.18;4.68;;;8.10;99.90;;;;;;5010869;28;20076;-75
2022/04/05 08:59:07;;;;;;;6.63;5.88;;;8.10;99.90;;;;;;5029482;28;20376;-76
2022/04/05 09:01:34;;;;;;;5.78;5.05;;;8.10;99.90;;;;;;5024243;28;20030;-76
2022/04/05 09:04:00;;;;;;;7.38;5.55;;;8.30;99.90;;;;;;5030510;28;20563;-76
2022/04/05 09:06:36;;;;;;;6.30;5.32;;;8.40;99.90;;;;;;5033198;28;20484;-77
2022/04/05 09:09:12;;;;;;;7.57;5.63;;;8.60;99.90;;;;;;5029908;28;20030;-76
2022/04/05 09:11:56;;;;;;;5.28;4.70;;;8.70;99.90;;;;;;5029553;28;20025;-76
2022/04/05 09:14:27;;;;;;;7.78;5.45;;;8.70;99.90;;;;;;5030462;28;20021;-76
2022/04/05 09:17:09;;;;;;;4.88;4.40;;;8.70;99.90;;;;;;5039333;28;20514;-74
2022/04/05 09:19:42;;;;;;;4.90;4.35;;;8.70;99.90;;;;;;5033893;28;20507;-76
2022/04/05 09:22:08;;;;;;;6.82;5.70;;;8.70;99.90;;;;;;5025716;28;20053;-76
2022/04/05 09:24:36;;;;;;;6.63;4.38;;;8.90;99.90;;;;;;5022728;28;20029;-77
2022/04/05 09:27:02;;;;;;;7.03;4.15;;;8.90;99.90;;;;;;5030527;28;20048;-78
2022/04/05 09:29:38;;;;;;;5.03;3.50;;;9.00;99.90;;;;;;5033658;28;20029;-77
2022/04/05 09:32:04;;;;;;;4.32;3.72;;;9.00;99.90;;;;;;5028225;28;20029;-75
2022/04/05 09:34:30;;;;;;;4.10;3.70;;;9.00;99.90;;;;;;5032046;28;20108;-77
2022/04/05 09:36:56;;;;;;;4.20;3.75;;;9.10;99.90;;;;;;5033890;28;20545;-76
2022/04/05 09:39:24;;;;;;;4.95;3.80;;;9.20;99.90;;;;;;5033909;28;20032;-77
2022/04/05 09:42:01;;;;;;;5.68;3.65;;;9.50;99.90;;;;;;5033977;28;20082;-77
2022/04/05 09:44:32;;;;;;;4.22;3.22;;;9.60;99.90;;;;;;5016188;28;20059;-76
2022/04/05 09:47:11;;;;;;;5.32;3.47;;;9.70;99.90;;;;;;5025388;28;20021;-74
2022/04/05 09:49:38;;;;;;;3.92;3.42;;;9.70;99.90;;;;;;5029055;28;20495;-76
2022/04/05 09:52:25;;;;;;;4.35;3.85;;;9.80;99.90;;;;;;5020068;28;20045;-76
2022/04/05 09:54:51;;;;;;;4.13;3.72;;;9.70;99.90;;;;;;5028719;28;20096;-76
2022/04/05 09:57:29;;;;;;;4.70;3.30;;;9.60;99.90;;;;;;5015034;28;20029;-75
2022/04/05 10:00:07;;;;;;;5.53;3.47;;;9.50;99.90;;;;;;5016727;28;20064;-76
2022/04/05 10:02:33;;;;;;;6.07;3.30;;;9.60;99.90;;;;;;5028556;28;20025;-77
2022/04/05 10:05:04;;;;;;;4.25;3.85;;;9.50;99.90;;;;;;5029380;28;20048;-77
2022/04/05 10:07:30;;;;;;;;;;;9.40;99.90;;;;;;5018445;28;20034;-76
2022/04/05 10:09:59;;;;;;;4.22;3.50;;;9.40;99.90;;;;;;5015435;28;19948;-76
2022/04/05 10:12:24;;;;;;;4.95;3.50;;;9.30;99.90;;;;;;5024046;28;20067;-76
2022/04/05 10:14:50;;;;;;;4.47;4.00;;;9.40;99.90;;;;;;5026289;28;20057;-76
2022/04/05 10:17:17;;;;;;;5.30;4.05;;;9.40;99.90;;;;;;5014144;28;20116;-76
2022/04/05 10:19:47;;;;;;;4.22;3.83;;;9.40;99.90;;;;;;5037724;28;20142;-76
2022/04/05 10:22:15;;;;;;;6.35;5.00;;;9.50;99.90;;;;;;5016113;28;20029;-76
2022/04/05 10:24:41;;;;;;;5.75;3.83;;;9.40;99.90;;;;;;5029677;28;20025;-76
2022/04/05 10:27:08;;;;;;;4.20;3.47;;;9.40;99.90;;;;;;5017929;28;20428;-77
2022/04/05 10:29:34;;;;;;;4.20;3.63;;;9.40;99.90;;;;;;5027334;28;20104;-77
2022/04/05 10:32:27;;;;;;;5.30;4.05;;;9.40;99.90;;;;;;5016217;28;20156;-77
2022/04/05 10:35:12;;;;;;;5.03;3.67;;;9.30;99.90;;;;;;5030410;28;20029;-76
2022/04/05 10:37:39;;;;;;;4.97;4.10;;;9.40;99.90;;;;;;5030344;28;20032;-75
2022/04/05 10:40:05;;;;;;;5.38;4.05;;;9.30;99.90;;;;;;5035619;28;20109;-76
2022/04/05 10:42:36;;;;;;;6.68;4.15;;;9.30;99.90;;;;;;5031893;28;20041;-76
2022/04/05 10:45:17;;;;;;;5.05;4.38;;;9.30;99.90;;;;;;5025340;28;20036;-74
2022/04/05 10:48:18;;;;;;;4.80;4.30;;;9.40;99.90;;;;;;5013642;28;20398;-76
2022/04/05 10:51:05;;;;;;;5.00;4.50;;;9.30;99.90;;;;;;4975521;28;20033;-77
2022/04/05 10:53:33;;;;;;;6.57;3.85;;;9.20;99.90;;;;;;5025683;28;20318;-76
2022/04/05 10:56:09;;;;;;;6.28;4.47;;;9.30;99.90;;;;;;5025997;28;20511;-75
2022/04/05 10:58:54;;;;;;;5.53;4.68;;;9.50;99.90;;;;;;5028786;28;20021;-76
2022/04/05 11:01:25;;;;;;;5.22;4.07;;;9.50;99.90;;;;;;5032090;28;20017;-76
2022/04/05 11:04:09;;;;;;;5.18;3.85;;;9.50;99.90;;;;;;5024908;28;20030;-75
2022/04/05 11:07:01;;;;;;;4.72;4.20;;;9.40;99.90;;;;;;5033036;28;20025;-74
2022/04/05 11:09:42;;;;;;;4.75;4.32;;;9.30;99.90;;;;;;5021960;28;20030;-74
2022/04/05 11:12:12;;;;;;;;;;;9.40;99.90;;;;;;5025865;28;20057;-75
2022/04/05 11:14:42;;;;;;;5.65;4.45;;;9.50;99.90;;;;;;5026254;28;19905;-74
2022/04/05 11:17:10;;;;;;;4.60;4.20;;;9.60;99.90;;;;;;5034097;28;20025;-73
2022/04/05 11:19:37;;;;;;;5.22;4.57;;;9.60;99.90;;;;;;5034385;28;20157;-75
2022/04/05 11:22:04;;;;;;;5.32;4.35;;;9.70;99.90;;;;;;5031102;28;20144;-73
2022/04/05 11:24:53;;;;;;;5.40;4.13;;;9.70;99.90;;;;;;5031559;28;20017;-74
2022/04/05 11:27:44;;;;;;;4.63;3.30;;;9.70;99.90;;;;;;5030853;28;20106;-73
2022/04/05 11:30:28;;;;;;;3.35;3.05;;;9.80;99.90;;;;;;5024922;28;20395;-73
2022/04/05 11:33:12;;;;;;;4.60;3.58;;;10.20;99.90;;;;;;5029033;28;20030;-73
2022/04/05 11:35:50;;;;;;;4.95;3.30;;;10.30;99.90;;;;;;5031677;28;20033;-74
2022/04/05 11:38:18;;;;;;;3.50;3.20;;;10.40;99.90;;;;;;5032848;28;20034;-74
2022/04/05 11:40:46;;;;;;;4.63;3.67;;;10.30;99.90;;;;;;5033821;28;20365;-75
2022/04/05 11:43:24;;;;;;;5.95;2.60;;;10.30;99.90;;;;;;5039997;28;20021;-74
2022/04/05 11:45:57;;;;;;;3.25;2.70;;;10.10;99.90;;;;;;5036137;28;20117;-74
2022/04/05 11:48:26;;;;;;;3.80;2.88;;;10.30;99.90;;;;;;5024086;28;20067;-75
2022/04/05 11:50:52;;;;;;;4.38;2.70;;;10.30;99.90;;;;;;5032089;28;20085;-74
2022/04/05 11:53:21;;;;;;;4.22;2.97;;;10.40;99.90;;;;;;5020132;28;20121;-74
2022/04/05 11:56:03;;;;;;;2.72;2.53;;;10.40;99.90;;;;;;5038586;28;20052;-75
2022/04/05 11:58:30;;;;;;;3.67;3.10;;;10.30;99.90;;;;;;5025135;28;20446;-75
2022/04/05 12:00:57;;;;;;;5.10;3.00;;;10.50;99.90;;;;;;5030400;28;20031;-74
2022/04/05 12:03:23;;;;;;;2.97;2.63;;;10.60;99.90;;;;;;5017990;28;20034;-73
2022/04/05 12:05:49;;;;;;;3.28;2.97;;;10.60;99.90;;;;;;5037417;28;20021;-73
2022/04/05 12:08:15;;;;;;;3.22;2.60;;;10.60;99.90;;;;;;5029143;28;20394;-74
2022/04/05 12:10:42;;;;;;;3.35;3.05;;;10.80;99.90;;;;;;5031729;28;20091;-73
2022/04/05 12:13:08;;;;;;;7.38;2.83;;;11.00;99.90;;;;;;5029195;28;20131;-74
2022/04/05 12:15:36;;;;;;;2.63;2.42;;;11.00;99.90;;;;;;5028137;28;20117;-74
2022/04/05 12:18:22;;;;;;;7.15;2.70;;;11.10;99.90;;;;;;5028233;28;20500;-74
2022/04/05 12:21:08;;;;;;;3.50;2.78;;;11.00;99.90;;;;;;5028666;28;20368;-73
2022/04/05 12:23:38;;;;;;;5.55;2.88;;;11.30;99.90;;;;;;5035234;28;20173;-74
2022/04/05 12:26:14;;;;;;;4.07;3.13;;;11.20;99.90;;;;;;5028195;28;20629;-73
2022/04/05 12:28:45;;;;;;;3.20;2.38;;;11.40;99.90;;;;;;5018038;28;20030;-73
2022/04/05 12:31:22;;;;;;;3.90;2.65;;;11.60;99.90;;;;;;5017043;28;20029;-74
2022/04/05 12:34:11;;;;;;;3.40;2.78;;;11.70;99.90;;;;;;5032196;28;20025;-75
2022/04/05 12:36:40;;;;;;;3.60;2.50;;;11.90;99.90;;;;;;5033740;28;20470;-74
2022/04/05 12:39:15;;;;;;;3.35;2.47;;;11.70;99.90;;;;;;5032615;28;20057;-74
2022/04/05 12:41:41;;;;;;;2.53;2.15;;;12.00;99.90;;;;;;5031769;28;20025;-74
2022/04/05 12:44:12;;;;;;;3.28;2.83;;;12.30;99.90;;;;;;5021532;28;20032;-74
2022/04/05 12:46:39;;;;;;;5.75;2.50;;;12.10;99.90;;;;;;5027505;28;20587;-75
2022/04/05 12:49:23;;;;;;;3.47;2.25;;;12.20;99.90;;;;;;5024036;28;20037;-75
2022/04/05 12:51:50;;;;;;;6.47;2.78;;;12.50;99.90;;;;;;5028718;28;20033;-73
2022/04/05 12:54:33;;;;;;;4.57;2.63;;;12.30;99.90;;;;;;5011429;28;20059;-76
2022/04/05 12:57:20;;;;;;;4.13;2.10;;;12.20;99.90;;;;;;5028104;28;20036;-74
2022/04/05 12:59:51;;;;;;;2.63;2.33;;;12.10;99.90;;;;;;5031974;28;20101;-74
2022/04/05 13:02:22;;;;;;;5.75;2.00;;;11.80;99.90;;;;;;5034099;28;20026;-74